| time (UTC) | temp F | wind direction | speed knots | gust knots | rain 1hr in | rain 24hr in | rain mn in | humidity % | barometer mb |
| 20260906215003 | 87 | 348 | 4.3 | 13.9 | 0.00 | 0.00 | 0.00 | 31 | 3062.6 |
| 20260906214503 | 88 | 350 | 5.2 | 9.6 | 0.00 | 0.00 | 0.00 | 30 | 3063.0 |
| 20260906214003 | 87 | 350 | 0.0 | 9.6 | 0.00 | 0.00 | 0.00 | 30 | 3063.1 |
| 20260906213504 | 87 | 71 | 0.9 | 8.7 | 0.00 | 0.00 | 0.00 | 31 | 3063.4 |
| 20260906213004 | 87 | 33 | 0.0 | 8.7 | 0.00 | 0.00 | 0.00 | 32 | 3063.4 |
| 20260906212504 | 87 | 13 | 2.6 | 7.8 | 0.00 | 0.00 | 0.00 | 31 | 3063.4 |
| 20260906212004 | 87 | 292 | 3.5 | 7.8 | 0.00 | 0.00 | 0.00 | 32 | 3063.6 |
| 20260906211503 | 88 | 280 | 3.5 | 7.8 | 0.00 | 0.00 | 0.00 | 32 | 3064.4 |
| 20260906211003 | 87 | 31 | 0.0 | 7.8 | 0.00 | 0.00 | 0.00 | 32 | 3064.3 |
| 20260906210503 | 87 | 174 | 1.7 | 8.7 | 0.00 | 0.00 | 0.00 | 33 | 3064.5 |
| 20260906210004 | 87 | 173 | 3.5 | 8.7 | 0.00 | 0.00 | 0.00 | 33 | 3064.7 |
| 20260906205503 | 87 | 220 | 0.0 | 8.7 | 0.00 | 0.00 | 0.00 | 33 | 3064.7 |
| 20260906204003 | 87 | 61 | 0.0 | 7.8 | 0.00 | 0.00 | 0.00 | 32 | 3065.4 |
| 20260906203503 | 87 | 313 | 6.1 | 9.6 | 0.00 | 0.00 | 0.00 | 32 | 3065.9 |
| 20260906202503 | 88 | 14 | 1.7 | 7.0 | 0.00 | 0.00 | 0.00 | 32 | 3066.1 |
| 20260906202003 | 88 | 199 | 3.5 | 9.6 | 0.00 | 0.00 | 0.00 | 32 | 3066.4 |
| 20260906201503 | 88 | 267 | 6.1 | 9.6 | 0.00 | 0.00 | 0.00 | 32 | 3067.7 |
| 20260906201003 | 88 | 71 | 0.0 | 8.7 | 0.00 | 0.00 | 0.00 | 32 | 3068.1 |
| 20260906200503 | 88 | 329 | 0.9 | 8.7 | 0.00 | 0.00 | 0.00 | 33 | 3067.9 |
| 20260906200002 | 87 | 290 | 7.0 | 9.6 | 0.00 | 0.00 | 0.00 | 33 | 3066.8 |
| 20260906195503 | 87 | 11 | 0.0 | 9.6 | 0.00 | 0.00 | 0.00 | 34 | 3066.7 |
| 20260906194502 | 87 | 246 | 4.3 | 7.0 | 0.00 | 0.00 | 0.00 | 32 | 3066.9 |
| 20260906194002 | 87 | 303 | 6.1 | 7.0 | 0.00 | 0.00 | 0.00 | 32 | 3067.2 |
| 20260906193503 | 87 | 226 | 0.0 | 6.1 | 0.00 | 0.00 | 0.00 | 30 | 3067.1 |
| 20260906192002 | 86 | 74 | 0.0 | 7.8 | 0.00 | 0.00 | 0.00 | 32 | 3067.9 |
| 20260906191502 | 86 | 296 | 2.6 | 11.3 | 0.00 | 0.00 | 0.00 | 32 | 3068.2 |
| 20260906191003 | 86 | 68 | 0.0 | 11.3 | 0.00 | 0.00 | 0.00 | 32 | 3068.2 |
| 20260906190503 | 87 | 244 | 2.6 | 6.1 | 0.00 | 0.00 | 0.00 | 32 | 3068.7 |
| 20260906185002 | 87 | 282 | 3.5 | 7.8 | 0.00 | 0.00 | 0.00 | 32 | 3069.8 |
| 20260906184502 | 86 | 282 | 1.7 | 7.8 | 0.00 | 0.00 | 0.00 | 33 | 3070.0 |
| 20260906184002 | 85 | 234 | 0.9 | 7.8 | 0.00 | 0.00 | 0.00 | 34 | 3068.9 |
| 20260906183502 | 85 | 264 | 0.0 | 7.8 | 0.00 | 0.00 | 0.00 | 33 | 3069.2 |
| 20260906183002 | 86 | 259 | 4.3 | 7.8 | 0.00 | 0.00 | 0.00 | 34 | 3071.5 |
| 20260906182502 | 85 | 248 | 0.0 | 7.8 | 0.00 | 0.00 | 0.00 | 34 | 3070.3 |
| 20260906182002 | 85 | 290 | 1.7 | 7.8 | 0.00 | 0.00 | 0.00 | 34 | 3070.4 |
| 20260906181502 | 85 | 276 | 1.7 | 6.1 | 0.00 | 0.00 | 0.00 | 33 | 3072.2 |
| 20260906181002 | 84 | 16 | 0.0 | 6.1 | 0.00 | 0.00 | 0.00 | 35 | 3072.7 |
| 20260906180502 | 85 | 350 | 6.1 | 7.0 | 0.00 | 0.00 | 0.00 | 34 | 3072.8 |
| 20260906180002 | 84 | 33 | 0.0 | 7.8 | 0.00 | 0.00 | 0.00 | 35 | 3073.1 |
| 20260906175502 | 84 | 317 | 6.1 | 7.8 | 0.00 | 0.00 | 0.00 | 34 | 3073.5 |
| 20260906175002 | 84 | 198 | 0.0 | 8.7 | 0.00 | 0.00 | 0.00 | 34 | 3073.5 |
| 20260906174002 | 83 | 38 | 0.0 | 7.0 | 0.00 | 0.00 | 0.00 | 34 | 3072.5 |
| 20260906173502 | 84 | 253 | 1.7 | 7.0 | 0.00 | 0.00 | 0.00 | 33 | 3074.1 |
| 20260906173001 | 84 | 52 | 0.0 | 5.2 | 0.00 | 0.00 | 0.00 | 33 | 3074.3 |
| 20260906172501 | 83 | 52 | 0.0 | 7.0 | 0.00 | 0.00 | 0.00 | 35 | 3073.7 |
| 20260906172001 | 83 | 286 | 0.0 | 7.0 | 0.00 | 0.00 | 0.00 | 33 | 3073.3 |
| 20260906171501 | 83 | 300 | 5.2 | 6.1 | 0.00 | 0.00 | 0.00 | 33 | 3073.8 |
| 20260906171001 | 83 | 301 | 0.9 | 11.3 | 0.00 | 0.00 | 0.00 | 34 | 3074.0 |
| 20260906170501 | 83 | 130 | 0.0 | 11.3 | 0.00 | 0.00 | 0.00 | 33 | 3074.0 |
| 20260906165501 | 83 | 95 | 0.0 | 4.3 | 0.00 | 0.00 | 0.00 | 33 | 3074.0 |
| 20260906165001 | 83 | 295 | 0.0 | 4.3 | 0.00 | 0.00 | 0.00 | 32 | 3073.8 |
| 20260906164501 | 83 | 72 | 0.0 | 5.2 | 0.00 | 0.00 | 0.00 | 32 | 3073.6 |
| 20260906164001 | 83 | 317 | 0.0 | 5.2 | 0.00 | 0.00 | 0.00 | 32 | 3073.8 |
| 20260906163501 | 83 | 237 | 2.6 | 4.3 | 0.00 | 0.00 | 0.00 | 33 | 3074.0 |
| 20260906163001 | 82 | 57 | 0.0 | 4.3 | 0.00 | 0.00 | 0.00 | 32 | 3073.8 |
| 20260906162501 | 83 | 56 | 0.0 | 3.5 | 0.00 | 0.00 | 0.00 | 32 | 3074.3 |
| 20260906162001 | 82 | 86 | 0.0 | 5.2 | 0.00 | 0.00 | 0.00 | 32 | 3073.9 |
| 20260906161501 | 81 | 31 | 0.0 | 5.2 | 0.00 | 0.00 | 0.00 | 32 | 3075.3 |
| 20260906161001 | 82 | 22 | 0.9 | 5.2 | 0.00 | 0.00 | 0.00 | 33 | 3075.7 |
| 20260906155501 | 81 | 56 | 0.0 | 0.9 | 0.00 | 0.00 | 0.00 | 33 | 3075.2 |
| 20260906155001 | 80 | 61 | 0.0 | 0.9 | 0.00 | 0.00 | 0.00 | 33 | 3073.7 |
| 20260906154001 | 80 | 61 | 0.0 | 2.6 | 0.00 | 0.00 | 0.00 | 33 | 3073.5 |
| 20260906153500 | 79 | 254 | 0.0 | 1.7 | 0.00 | 0.00 | 0.00 | 33 | 3073.3 |
| 20260906153000 | 79 | 283 | 0.9 | 1.7 | 0.00 | 0.00 | 0.00 | 35 | 3073.8 |
| 20260906152500 | 79 | 5 | 0.0 | 1.7 | 0.00 | 0.00 | 0.00 | 36 | 3074.0 |
| 20260906151500 | 78 | 187 | 0.0 | 0.9 | 0.00 | 0.00 | 0.00 | 36 | 3073.8 |
| 20260906151001 | 78 | 206 | 0.0 | 0.9 | 0.00 | 0.00 | 0.00 | 36 | 3073.8 |
| 20260906150500 | 78 | 116 | 0.0 | 0.9 | 0.00 | 0.00 | 0.00 | 37 | 3074.0 |
| 20260906150000 | 77 | 55 | 0.0 | 0.9 | 0.00 | 0.00 | 0.00 | 38 | 3072.5 |
| 20260906145500 | 76 | 16 | 0.0 | 0.9 | 0.00 | 0.00 | 0.00 | 39 | 3072.2 |
| 20260906144500 | 75 | 81 | 0.0 | 1.7 | 0.00 | 0.00 | 0.00 | 40 | 3071.1 |
| 20260906144000 | 74 | 102 | 0.0 | 1.7 | 0.00 | 0.00 | 0.00 | 41 | 3071.1 |
| 20260906143500 | 74 | 59 | 0.0 | 1.7 | 0.00 | 0.00 | 0.00 | 41 | 3071.1 |
| 20260906143000 | 73 | 231 | 0.0 | 1.7 | 0.00 | 0.00 | 0.00 | 42 | 3069.7 |
| 20260906142501 | 73 | 61 | 0.0 | 0.0 | 0.00 | 0.00 | 0.00 | 43 | 3069.5 |
| 20260906141959 | 72 | 61 | 0.0 | 0.0 | 0.00 | 0.00 | 0.00 | 43 | 3069.0 |
| 20260906141500 | 72 | 61 | 0.0 | 0.0 | 0.00 | 0.00 | 0.00 | 45 | 3071.9 |
| 20260906141000 | 71 | 107 | 0.0 | 0.0 | 0.00 | 0.00 | 0.00 | 46 | 3070.6 |
| 20260906140500 | 70 | 108 | 0.0 | 0.0 | 0.00 | 0.00 | 0.00 | 46 | 3070.8 |
| 20260906140000 | 70 | 108 | 0.0 | 0.0 | 0.00 | 0.00 | 0.00 | 47 | 3070.7 |
| 20260906135459 | 69 | 108 | 0.0 | 0.0 | 0.00 | 0.00 | 0.00 | 47 | 3069.2 |
| 20260906134959 | 68 | 97 | 0.0 | 0.0 | 0.00 | 0.00 | 0.00 | 49 | 3069.1 |
| 20260906134459 | 67 | 97 | 0.0 | 0.0 | 0.00 | 0.00 | 0.00 | 52 | 3067.6 |
| 20260906132959 | 64 | 97 | 0.0 | 0.0 | 0.00 | 0.00 | 0.00 | 58 | 3065.9 |
| 20260906132459 | 63 | 97 | 0.0 | 0.0 | 0.00 | 0.00 | 0.00 | 58 | 3064.3 |
| 20260906131459 | 63 | 97 | 0.0 | 0.0 | 0.00 | 0.00 | 0.00 | 58 | 3064.8 |
| 20260906130959 | 63 | 97 | 0.0 | 0.0 | 0.00 | 0.00 | 0.00 | 58 | 3064.8 |
| 20260906130459 | 64 | 98 | 0.0 | 0.0 | 0.00 | 0.00 | 0.00 | 62 | 3066.3 |
| 20260906125459 | 64 | 98 | 0.0 | 0.0 | 0.00 | 0.00 | 0.00 | 62 | 3066.2 |
| 20260906124959 | 64 | 98 | 0.0 | 0.0 | 0.00 | 0.00 | 0.00 | 62 | 3066.3 |
| 20260906123959 | 64 | 98 | 0.0 | 0.0 | 0.00 | 0.00 | 0.00 | 62 | 3066.3 |
| 20260906123458 | 64 | 98 | 0.0 | 0.0 | 0.00 | 0.00 | 0.00 | 62 | 3066.2 |
| 20260906122959 | 64 | 98 | 0.0 | 0.0 | 0.00 | 0.00 | 0.00 | 62 | 3066.2 |
| 20260906122458 | 64 | 98 | 0.0 | 0.0 | 0.00 | 0.00 | 0.00 | 62 | 3066.2 |
| 20260906121458 | 64 | 98 | 0.0 | 0.0 | 0.00 | 0.00 | 0.00 | 62 | 3070.0 |
| 20260906120958 | 64 | 98 | 0.0 | 0.0 | 0.00 | 0.00 | 0.00 | 62 | 3070.0 |
| 20260906120458 | 64 | 98 | 0.0 | 0.0 | 0.00 | 0.00 | 0.00 | 62 | 3069.8 |
| 20260906115958 | 64 | 98 | 0.0 | 0.0 | 0.00 | 0.00 | 0.00 | 62 | 3070.2 |
| 20260906115458 | 64 | 98 | 0.0 | 0.0 | 0.00 | 0.00 | 0.00 | 62 | 3070.0 |
| 20260906114958 | 64 | 98 | 0.0 | 0.0 | 0.00 | 0.00 | 0.00 | 62 | 3070.2 |
| 20260906114458 | 64 | 98 | 0.0 | 0.0 | 0.00 | 0.00 | 0.00 | 62 | 3069.9 |
| 20260906113958 | 64 | 98 | 0.0 | 0.0 | 0.00 | 0.00 | 0.00 | 62 | 3070.2 |
| 20260906113458 | 64 | 98 | 0.0 | 0.0 | 0.00 | 0.00 | 0.00 | 62 | 3070.2 |
| 20260906112958 | 64 | 98 | 0.0 | 0.0 | 0.00 | 0.00 | 0.00 | 62 | 3070.1 |
| 20260906111958 | 64 | 98 | 0.0 | 0.0 | 0.00 | 0.00 | 0.00 | 62 | 3070.0 |
| 20260906111457 | 64 | 98 | 0.0 | 0.0 | 0.00 | 0.00 | 0.00 | 62 | 3071.3 |
| 20260906110958 | 64 | 98 | 0.0 | 0.0 | 0.00 | 0.00 | 0.00 | 62 | 3071.3 |
| 20260906110458 | 64 | 98 | 0.0 | 0.0 | 0.00 | 0.00 | 0.00 | 62 | 3071.8 |
| 20260906104458 | 64 | 98 | 0.0 | 0.0 | 0.00 | 0.00 | 0.00 | 62 | 3072.3 |
| 20260906103957 | 64 | 98 | 0.0 | 0.0 | 0.00 | 0.00 | 0.00 | 62 | 3072.6 |
| 20260906103457 | 64 | 98 | 0.0 | 0.0 | 0.00 | 0.00 | 0.00 | 62 | 3072.7 |
| 20260906102957 | 64 | 98 | 0.0 | 0.0 | 0.00 | 0.00 | 0.00 | 62 | 3073.0 |
| 20260906102457 | 64 | 98 | 0.0 | 0.0 | 0.00 | 0.00 | 0.00 | 62 | 3073.2 |
| 20260906101957 | 64 | 98 | 0.0 | 0.0 | 0.00 | 0.00 | 0.00 | 62 | 3074.1 |
| 20260906101457 | 64 | 98 | 0.0 | 0.0 | 0.00 | 0.00 | 0.00 | 62 | 3072.1 |
| 20260906100957 | 64 | 98 | 0.0 | 0.0 | 0.00 | 0.00 | 0.00 | 62 | 3071.0 |
| 20260906100456 | 65 | 97 | 0.0 | 0.0 | 0.00 | 0.00 | 0.00 | 57 | 3071.0 |
| 20260906095956 | 65 | 97 | 0.0 | 0.0 | 0.00 | 0.00 | 0.00 | 55 | 3070.6 |
| 20260906094456 | 65 | 97 | 0.0 | 0.0 | 0.00 | 0.00 | 0.00 | 55 | 3070.3 |
| 20260906093456 | 64 | 97 | 0.0 | 0.0 | 0.00 | 0.00 | 0.00 | 57 | 3070.1 |
| 20260906092956 | 64 | 97 | 0.0 | 0.0 | 0.00 | 0.00 | 0.00 | 58 | 3070.1 |
| 20260906092456 | 64 | 97 | 0.0 | 0.0 | 0.00 | 0.00 | 0.00 | 60 | 3070.1 |
| 20260906091956 | 64 | 97 | 0.0 | 0.0 | 0.00 | 0.00 | 0.00 | 60 | 3070.3 |
| 20260906091456 | 64 | 97 | 0.0 | 0.0 | 0.00 | 0.00 | 0.00 | 60 | 3068.6 |
| 20260906090956 | 64 | 97 | 0.0 | 0.0 | 0.00 | 0.00 | 0.00 | 60 | 3068.4 |
| 20260906090456 | 65 | 97 | 0.0 | 0.0 | 0.00 | 0.00 | 0.00 | 59 | 3068.4 |
| 20260906085956 | 65 | 97 | 0.0 | 0.0 | 0.00 | 0.00 | 0.00 | 59 | 3068.6 |
| 20260906085455 | 65 | 97 | 0.0 | 0.0 | 0.00 | 0.00 | 0.00 | 59 | 3068.4 |
| 20260906084956 | 64 | 97 | 0.0 | 0.0 | 0.00 | 0.00 | 0.00 | 61 | 3068.5 |
| 20260906084456 | 64 | 97 | 0.0 | 0.0 | 0.00 | 0.00 | 0.00 | 63 | 3068.3 |
| 20260906083456 | 64 | 97 | 0.0 | 0.0 | 0.00 | 0.00 | 0.00 | 65 | 3068.3 |
| 20260906081955 | 64 | 97 | 0.0 | 0.0 | 0.00 | 0.00 | 0.00 | 67 | 3069.4 |
| 20260906081455 | 64 | 97 | 0.0 | 0.0 | 0.00 | 0.00 | 0.00 | 67 | 3073.0 |
| 20260906075455 | 63 | 97 | 0.0 | 0.0 | 0.00 | 0.00 | 0.00 | 69 | 3071.9 |
| 20260906074454 | 63 | 97 | 0.0 | 0.0 | 0.00 | 0.00 | 0.00 | 71 | 3072.6 |
| 20260906073954 | 63 | 97 | 0.0 | 0.0 | 0.00 | 0.00 | 0.00 | 71 | 3072.4 |
| 20260906072455 | 64 | 97 | 0.0 | 0.0 | 0.00 | 0.00 | 0.00 | 71 | 3073.7 |
| 20260906071954 | 64 | 97 | 0.0 | 0.0 | 0.00 | 0.00 | 0.00 | 70 | 3073.6 |
| 20260906071454 | 64 | 97 | 0.0 | 0.0 | 0.00 | 0.00 | 0.00 | 70 | 3074.2 |
| 20260906070454 | 64 | 97 | 0.0 | 0.0 | 0.00 | 0.00 | 0.00 | 70 | 3075.0 |
| 20260906065454 | 65 | 97 | 0.0 | 0.0 | 0.00 | 0.00 | 0.00 | 70 | 3076.3 |
| 20260906064954 | 65 | 97 | 0.0 | 0.0 | 0.00 | 0.00 | 0.00 | 70 | 3076.7 |
| 20260906064454 | 65 | 97 | 0.0 | 0.0 | 0.00 | 0.00 | 0.00 | 69 | 3076.3 |
| 20260906063954 | 65 | 97 | 0.0 | 0.0 | 0.00 | 0.00 | 0.00 | 68 | 3076.3 |
| 20260906063454 | 66 | 97 | 0.0 | 0.0 | 0.00 | 0.00 | 0.00 | 67 | 3076.6 |
| 20260906062454 | 66 | 97 | 0.0 | 0.0 | 0.00 | 0.00 | 0.00 | 66 | 3076.2 |
| 20260906061954 | 66 | 97 | 0.0 | 0.0 | 0.00 | 0.00 | 0.00 | 67 | 3075.9 |
| 20260906061454 | 66 | 97 | 0.0 | 0.0 | 0.00 | 0.00 | 0.00 | 67 | 3076.1 |
| 20260906060954 | 66 | 97 | 0.0 | 0.0 | 0.00 | 0.00 | 0.00 | 67 | 3075.9 |
| 20260906055954 | 66 | 97 | 0.0 | 0.0 | 0.00 | 0.00 | 0.00 | 67 | 3075.0 |
| 20260906055453 | 66 | 97 | 0.0 | 0.0 | 0.00 | 0.00 | 0.00 | 67 | 3075.4 |
| 20260906054953 | 66 | 97 | 0.0 | 0.0 | 0.00 | 0.00 | 0.00 | 66 | 3075.0 |
| 20260906053953 | 67 | 97 | 0.0 | 0.0 | 0.00 | 0.00 | 0.00 | 65 | 3074.5 |
| 20260906053453 | 67 | 97 | 0.0 | 0.0 | 0.00 | 0.00 | 0.00 | 66 | 3074.7 |
| 20260906051954 | 66 | 97 | 0.0 | 0.0 | 0.00 | 0.00 | 0.00 | 66 | 3074.6 |
| 20260906051453 | 67 | 97 | 0.0 | 0.0 | 0.00 | 0.00 | 0.00 | 66 | 3076.0 |
| 20260906050453 | 67 | 97 | 0.0 | 0.0 | 0.00 | 0.00 | 0.00 | 64 | 3076.3 |
| 20260906045953 | 68 | 97 | 0.0 | 0.0 | 0.00 | 0.00 | 0.00 | 63 | 3077.7 |
| 20260906045453 | 68 | 97 | 0.0 | 0.0 | 0.00 | 0.00 | 0.00 | 62 | 3077.6 |
| 20260906044953 | 69 | 97 | 0.0 | 0.0 | 0.00 | 0.00 | 0.00 | 62 | 3077.9 |
| 20260906044453 | 69 | 97 | 0.0 | 0.0 | 0.00 | 0.00 | 0.00 | 60 | 3078.0 |
| 20260906041452 | 70 | 97 | 0.0 | 0.0 | 0.00 | 0.00 | 0.00 | 60 | 3077.2 |
| 20260906040952 | 70 | 97 | 0.0 | 0.0 | 0.00 | 0.00 | 0.00 | 60 | 3076.8 |
| 20260906035952 | 70 | 97 | 0.0 | 0.0 | 0.00 | 0.00 | 0.00 | 59 | 3076.9 |
| 20260906034952 | 71 | 97 | 0.0 | 0.0 | 0.00 | 0.00 | 0.00 | 58 | 3078.2 |
| 20260906033952 | 71 | 97 | 0.0 | 0.0 | 0.00 | 0.00 | 0.00 | 57 | 3078.1 |
| 20260906033452 | 71 | 97 | 0.0 | 0.0 | 0.00 | 0.00 | 0.00 | 56 | 3078.0 |
| 20260906032952 | 71 | 97 | 0.0 | 0.0 | 0.00 | 0.00 | 0.00 | 56 | 3078.1 |
| 20260906031952 | 70 | 91 | 0.0 | 0.0 | 0.00 | 0.00 | 0.00 | 54 | 3075.9 |
| 20260906030952 | 71 | 91 | 0.0 | 0.0 | 0.00 | 0.00 | 0.00 | 50 | 3074.3 |
| 20260906030451 | 71 | 91 | 0.0 | 4.3 | 0.00 | 0.00 | 0.00 | 50 | 3074.2 |
| 20260906025952 | 72 | 91 | 0.0 | 4.3 | 0.00 | 0.00 | 0.00 | 52 | 3074.3 |
| 20260906025452 | 72 | 66 | 0.0 | 0.0 | 0.00 | 0.00 | 0.00 | 54 | 3073.9 |
| 20260906024951 | 72 | 66 | 0.0 | 0.0 | 0.00 | 0.00 | 0.00 | 54 | 3073.9 |
| 20260906024452 | 72 | 65 | 0.0 | 1.7 | 0.00 | 0.00 | 0.00 | 53 | 3073.7 |
| 20260906023952 | 72 | 128 | 0.0 | 1.7 | 0.00 | 0.00 | 0.00 | 48 | 3073.3 |
| 20260906023452 | 72 | 144 | 0.0 | 1.7 | 0.00 | 0.00 | 0.00 | 45 | 3072.9 |
| 20260906022952 | 73 | 154 | 0.0 | 1.7 | 0.00 | 0.00 | 0.00 | 38 | 3072.8 |
| 20260906022451 | 73 | 164 | 0.0 | 0.0 | 0.00 | 0.00 | 0.00 | 37 | 3072.6 |
| 20260906021951 | 74 | 61 | 0.0 | 0.0 | 0.00 | 0.00 | 0.00 | 37 | 3071.7 |
| 20260906021451 | 74 | 61 | 0.0 | 0.0 | 0.00 | 0.00 | 0.00 | 36 | 3061.7 |
| 20260906020952 | 75 | 61 | 0.0 | 0.0 | 0.00 | 0.00 | 0.00 | 36 | 3063.0 |
| 20260906020451 | 75 | 61 | 0.0 | 0.0 | 0.00 | 0.00 | 0.00 | 36 | 3062.4 |
| 20260906015952 | 75 | 61 | 0.0 | 0.0 | 0.00 | 0.00 | 0.00 | 37 | 3062.5 |
| 20260906015451 | 75 | 61 | 0.0 | 0.0 | 0.00 | 0.00 | 0.00 | 37 | 3062.5 |
| 20260906014951 | 75 | 61 | 0.0 | 0.0 | 0.00 | 0.00 | 0.00 | 37 | 3062.5 |
| 20260906014451 | 75 | 61 | 0.0 | 0.0 | 0.00 | 0.00 | 0.00 | 37 | 3062.2 |
| 20260906013951 | 75 | 61 | 0.0 | 0.0 | 0.00 | 0.00 | 0.00 | 37 | 3062.1 |
| 20260906013451 | 75 | 61 | 0.0 | 0.0 | 0.00 | 0.00 | 0.00 | 37 | 3062.0 |
| 20260906011951 | 76 | 61 | 0.0 | 0.0 | 0.00 | 0.00 | 0.00 | 36 | 3061.5 |
| 20260906011451 | 76 | 61 | 0.0 | 0.0 | 0.00 | 0.00 | 0.00 | 36 | 3058.8 |
| 20260906010450 | 77 | 61 | 0.0 | 0.0 | 0.00 | 0.00 | 0.00 | 35 | 3059.9 |
| 20260906005951 | 78 | 61 | 0.0 | 0.0 | 0.00 | 0.00 | 0.00 | 34 | 3060.1 |
| 20260906005450 | 79 | 61 | 0.0 | 0.0 | 0.00 | 0.00 | 0.00 | 33 | 3061.5 |
| 20260906004950 | 80 | 61 | 0.0 | 0.0 | 0.00 | 0.00 | 0.00 | 32 | 3061.9 |
| 20260906004450 | 82 | 61 | 0.0 | 0.0 | 0.00 | 0.00 | 0.00 | 30 | 3063.2 |
| 20260906003950 | 82 | 61 | 0.0 | 0.0 | 0.00 | 0.00 | 0.00 | 30 | 3063.4 |
| 20260906003450 | 81 | 61 | 0.0 | 0.0 | 0.00 | 0.00 | 0.00 | 32 | 3063.3 |
| 20260906002950 | 81 | 61 | 0.0 | 0.0 | 0.00 | 0.00 | 0.00 | 31 | 3063.2 |
| 20260906002450 | 81 | 61 | 0.0 | 0.0 | 0.00 | 0.00 | 0.00 | 30 | 3063.0 |
| 20260906001450 | 82 | 61 | 0.0 | 0.0 | 0.00 | 0.00 | 0.00 | 30 | 3060.8 |
| 20260906000950 | 83 | 61 | 0.0 | 0.0 | 0.00 | 0.00 | 0.00 | 30 | 3061.9 |
| 20260906000450 | 84 | 61 | 0.0 | 0.0 | 0.00 | 0.00 | 0.00 | 28 | 3062.1 |
| 20260905235950 | 84 | 61 | 0.0 | 0.0 | 0.00 | 0.00 | 0.00 | 27 | 3061.7 |
| 20260905235450 | 84 | 61 | 0.0 | 0.0 | 0.00 | 0.00 | 0.00 | 27 | 3061.7 |
| 20260905234450 | 84 | 61 | 0.0 | 0.0 | 0.00 | 0.00 | 0.00 | 28 | 3061.5 |
| 20260905233949 | 83 | 61 | 0.0 | 0.0 | 0.00 | 0.00 | 0.00 | 29 | 3061.5 |
| 20260905233449 | 83 | 61 | 0.0 | 0.0 | 0.00 | 0.00 | 0.00 | 29 | 3061.5 |
| 20260905232949 | 83 | 61 | 0.0 | 0.0 | 0.00 | 0.00 | 0.00 | 28 | 3061.5 |
| 20260905232450 | 83 | 61 | 0.0 | 0.0 | 0.00 | 0.00 | 0.00 | 28 | 3061.5 |
| 20260905231449 | 84 | 61 | 0.0 | 0.0 | 0.00 | 0.00 | 0.00 | 27 | 3061.0 |
| 20260905230450 | 83 | 112 | 0.0 | 0.0 | 0.00 | 0.00 | 0.00 | 29 | 3061.2 |
| 20260905225450 | 83 | 64 | 0.0 | 0.0 | 0.00 | 0.00 | 0.00 | 29 | 3061.2 |
| 20260905224949 | 83 | 63 | 0.0 | 0.0 | 0.00 | 0.00 | 0.00 | 30 | 3061.8 |
| 20260905223950 | 82 | 63 | 0.0 | 0.0 | 0.00 | 0.00 | 0.00 | 30 | 3060.3 |
| 20260905223449 | 83 | 63 | 0.0 | 0.0 | 0.00 | 0.00 | 0.00 | 30 | 3062.1 |
| 20260905222949 | 83 | 63 | 0.0 | 0.0 | 0.00 | 0.00 | 0.00 | 30 | 3062.2 |
| 20260905221949 | 82 | 47 | 0.0 | 0.0 | 0.00 | 0.00 | 0.00 | 31 | 3060.5 |
| 20260905221449 | 81 | 47 | 0.0 | 0.0 | 0.00 | 0.00 | 0.00 | 32 | 3060.9 |
| 20260905220949 | 81 | 45 | 0.0 | 0.0 | 0.00 | 0.00 | 0.00 | 31 | 3060.9 |
| 20260905220449 | 81 | 45 | 0.0 | 0.0 | 0.00 | 0.00 | 0.00 | 31 | 3061.4 |
| 20260905215948 | 81 | 45 | 0.0 | 0.0 | 0.00 | 0.00 | 0.00 | 31 | 3061.5 |
| 20260905215449 | 82 | 45 | 0.0 | 0.0 | 0.00 | 0.00 | 0.00 | 30 | 3061.4 |